sensor_id;sensor_type;location;lat;lon;timestamp;temperature;humidity
7542;DHT22;3812;50.006;8.230;2022-07-29T15:56:54;18.80;1.00
7542;DHT22;3812;50.006;8.230;2022-07-29T15:59:22;30.70;1.00
7542;DHT22;3812;50.006;8.230;2022-07-29T16:01:49;32.30;1.00
7542;DHT22;3812;50.006;8.230;2022-07-29T16:04:16;34.30;1.00
7542;DHT22;3812;50.006;8.230;2022-07-29T16:06:44;35.30;1.00
7542;DHT22;3812;50.006;8.230;2022-07-29T16:09:13;36.30;1.00
7542;DHT22;3812;50.006;8.230;2022-07-29T16:11:40;36.30;1.00
7542;DHT22;3812;50.006;8.230;2022-07-29T16:14:08;35.90;1.00
7542;DHT22;3812;50.006;8.230;2022-07-29T16:16:36;35.40;1.00
7542;DHT22;3812;50.006;8.230;2022-07-29T16:19:04;33.60;1.00
7542;DHT22;3812;50.006;8.230;2022-07-29T16:21:31;32.50;1.00
7542;DHT22;3812;50.006;8.230;2022-07-29T16:24:00;29.40;1.00
7542;DHT22;3812;50.006;8.230;2022-07-29T16:26:28;28.60;1.00
7542;DHT22;3812;50.006;8.230;2022-07-29T16:28:55;29.20;1.00
7542;DHT22;3812;50.006;8.230;2022-07-29T16:31:22;29.60;1.00
7542;DHT22;3812;50.006;8.230;2022-07-29T16:33:49;28.60;1.00
7542;DHT22;3812;50.006;8.230;2022-07-29T16:36:16;26.30;1.00
7542;DHT22;3812;50.006;8.230;2022-07-29T16:38:43;25.00;1.00
7542;DHT22;3812;50.006;8.230;2022-07-29T16:41:11;24.40;1.00
7542;DHT22;3812;50.006;8.230;2022-07-29T16:43:39;23.90;1.00
7542;DHT22;3812;50.006;8.230;2022-07-29T16:46:06;23.60;1.00
7542;DHT22;3812;50.006;8.230;2022-07-29T16:48:34;23.50;1.00
7542;DHT22;3812;50.006;8.230;2022-07-29T16:51:03;23.30;1.00
7542;DHT22;3812;50.006;8.230;2022-07-29T16:53:30;23.20;1.00
7542;DHT22;3812;50.006;8.230;2022-07-29T16:55:57;23.00;1.00
7542;DHT22;3812;50.006;8.230;2022-07-29T16:58:24;22.90;1.00
7542;DHT22;3812;50.006;8.230;2022-07-29T17:00:52;22.80;1.00
7542;DHT22;3812;50.006;8.230;2022-07-29T17:03:19;22.80;1.00
7542;DHT22;3812;50.006;8.230;2022-07-29T17:05:46;22.80;1.00
7542;DHT22;3812;50.006;8.230;2022-07-29T17:08:13;22.60;1.00
7542;DHT22;3812;50.006;8.230;2022-07-29T18:32:12;22.30;1.00
7542;DHT22;3812;50.006;8.230;2022-07-29T18:34:39;21.00;23.80
7542;DHT22;3812;50.006;8.230;2022-07-29T18:37:06;20.80;19.40
7542;DHT22;3812;50.006;8.230;2022-07-29T18:39:32;20.90;22.80
7542;DHT22;3812;50.006;8.230;2022-07-29T18:42:01;20.90;19.30
7542;DHT22;3812;50.006;8.230;2022-07-29T18:44:28;20.90;39.50
7542;DHT22;3812;50.006;8.230;2022-07-29T18:46:55;20.80;57.60
7542;DHT22;3812;50.006;8.230;2022-07-29T18:49:22;20.70;69.10
7542;DHT22;3812;50.006;8.230;2022-07-29T18:51:49;20.70;91.40
7542;DHT22;3812;50.006;8.230;2022-07-29T18:54:17;20.50;91.10
7542;DHT22;3812;50.006;8.230;2022-07-29T18:56:44;20.50;94.10
7542;DHT22;3812;50.006;8.230;2022-07-29T18:59:13;20.50;99.90
7542;DHT22;3812;50.006;8.230;2022-07-29T19:01:44;20.50;99.90
7542;DHT22;3812;50.006;8.230;2022-07-29T19:04:11;20.50;99.90
7542;DHT22;3812;50.006;8.230;2022-07-29T19:06:38;20.60;99.90
7542;DHT22;3812;50.006;8.230;2022-07-29T19:09:05;20.60;99.10
7542;DHT22;3812;50.006;8.230;2022-07-29T19:11:33;20.60;96.80
7542;DHT22;3812;50.006;8.230;2022-07-29T19:14:00;20.60;90.60
7542;DHT22;3812;50.006;8.230;2022-07-29T19:16:28;20.60;93.30
7542;DHT22;3812;50.006;8.230;2022-07-29T19:18:55;20.60;91.90
7542;DHT22;3812;50.006;8.230;2022-07-29T19:21:22;20.50;93.70
7542;DHT22;3812;50.006;8.230;2022-07-29T19:23:50;20.40;99.90
7542;DHT22;3812;50.006;8.230;2022-07-29T19:26:16;20.30;99.90
7542;DHT22;3812;50.006;8.230;2022-07-29T19:28:45;20.20;99.90
7542;DHT22;3812;50.006;8.230;2022-07-29T19:31:12;20.10;99.90
7542;DHT22;3812;50.006;8.230;2022-07-29T19:33:40;20.10;99.90
7542;DHT22;3812;50.006;8.230;2022-07-29T19:36:07;20.10;99.90
7542;DHT22;3812;50.006;8.230;2022-07-29T19:38:34;20.00;99.90
7542;DHT22;3812;50.006;8.230;2022-07-29T19:41:02;19.90;99.90
7542;DHT22;3812;50.006;8.230;2022-07-29T19:43:30;20.00;99.90
7542;DHT22;3812;50.006;8.230;2022-07-29T19:45:59;20.00;99.90
7542;DHT22;3812;50.006;8.230;2022-07-29T19:48:26;20.00;99.90
7542;DHT22;3812;50.006;8.230;2022-07-29T19:50:54;20.00;99.90
7542;DHT22;3812;50.006;8.230;2022-07-29T19:53:21;20.00;99.90
7542;DHT22;3812;50.006;8.230;2022-07-29T19:55:48;20.10;99.90
7542;DHT22;3812;50.006;8.230;2022-07-29T19:58:15;20.00;99.90
7542;DHT22;3812;50.006;8.230;2022-07-29T20:00:42;20.00;99.90
7542;DHT22;3812;50.006;8.230;2022-07-29T20:03:09;20.00;99.90
7542;DHT22;3812;50.006;8.230;2022-07-29T20:05:37;20.00;99.90
7542;DHT22;3812;50.006;8.230;2022-07-29T20:08:05;20.10;99.90
7542;DHT22;3812;50.006;8.230;2022-07-29T20:10:32;20.10;99.90
7542;DHT22;3812;50.006;8.230;2022-07-29T20:12:59;20.10;99.90
7542;DHT22;3812;50.006;8.230;2022-07-29T20:15:26;20.10;99.90
7542;DHT22;3812;50.006;8.230;2022-07-29T20:17:53;20.10;99.90
7542;DHT22;3812;50.006;8.230;2022-07-29T20:20:20;20.10;99.90
7542;DHT22;3812;50.006;8.230;2022-07-29T20:22:48;20.10;99.90
7542;DHT22;3812;50.006;8.230;2022-07-29T20:25:16;20.00;99.90
7542;DHT22;3812;50.006;8.230;2022-07-29T20:27:43;20.00;99.90
7542;DHT22;3812;50.006;8.230;2022-07-29T20:30:11;20.00;99.90
7542;DHT22;3812;50.006;8.230;2022-07-29T20:32:39;19.90;99.90
7542;DHT22;3812;50.006;8.230;2022-07-29T20:35:07;19.80;99.90
7542;DHT22;3812;50.006;8.230;2022-07-29T20:37:34;19.80;99.90
7542;DHT22;3812;50.006;8.230;2022-07-29T20:40:01;19.70;99.90
7542;DHT22;3812;50.006;8.230;2022-07-29T20:42:30;19.60;99.90
7542;DHT22;3812;50.006;8.230;2022-07-29T20:44:57;19.50;99.90
7542;DHT22;3812;50.006;8.230;2022-07-29T20:47:24;19.60;99.90
7542;DHT22;3812;50.006;8.230;2022-07-29T20:49:51;19.60;99.90
7542;DHT22;3812;50.006;8.230;2022-07-29T20:52:18;19.60;99.90
7542;DHT22;3812;50.006;8.230;2022-07-29T20:54:46;19.60;99.90
7542;DHT22;3812;50.006;8.230;2022-07-29T20:57:13;19.60;99.90
7542;DHT22;3812;50.006;8.230;2022-07-29T20:59:41;19.50;99.90
7542;DHT22;3812;50.006;8.230;2022-07-29T21:02:09;19.50;99.90
7542;DHT22;3812;50.006;8.230;2022-07-29T21:04:36;19.50;1.00
7542;DHT22;3812;50.006;8.230;2022-07-29T21:07:03;19.50;1.00
7542;DHT22;3812;50.006;8.230;2022-07-29T21:09:30;19.50;99.90
7542;DHT22;3812;50.006;8.230;2022-07-29T21:11:57;19.50;99.90
7542;DHT22;3812;50.006;8.230;2022-07-29T21:14:25;19.60;99.90
7542;DHT22;3812;50.006;8.230;2022-07-29T21:17:13;19.60;99.90
7542;DHT22;3812;50.006;8.230;2022-07-29T21:19:40;19.60;99.90
7542;DHT22;3812;50.006;8.230;2022-07-29T21:22:07;19.70;99.90
7542;DHT22;3812;50.006;8.230;2022-07-29T21:24:34;19.70;99.90
7542;DHT22;3812;50.006;8.230;2022-07-29T21:27:01;19.60;99.90
7542;DHT22;3812;50.006;8.230;2022-07-29T21:29:45;19.50;99.90
7542;DHT22;3812;50.006;8.230;2022-07-29T21:32:14;19.50;99.90
7542;DHT22;3812;50.006;8.230;2022-07-29T21:34:40;19.60;99.90
7542;DHT22;3812;50.006;8.230;2022-07-29T21:37:07;19.60;99.90
7542;DHT22;3812;50.006;8.230;2022-07-29T21:39:34;19.60;99.90
7542;DHT22;3812;50.006;8.230;2022-07-29T21:42:01;19.70;77.60
7542;DHT22;3812;50.006;8.230;2022-07-29T21:44:28;19.70;58.70
7542;DHT22;3812;50.006;8.230;2022-07-29T21:46:55;19.70;34.70
7542;DHT22;3812;50.006;8.230;2022-07-29T21:49:23;19.60;32.50
7542;DHT22;3812;50.006;8.230;2022-07-29T21:51:50;19.60;19.60
7542;DHT22;3812;50.006;8.230;2022-07-29T21:54:17;19.60;15.10
7542;DHT22;3812;50.006;8.230;2022-07-29T21:56:44;19.50;8.00
7542;DHT22;3812;50.006;8.230;2022-07-29T21:59:11;19.50;4.30
7542;DHT22;3812;50.006;8.230;2022-07-29T22:01:37;19.50;3.50
7542;DHT22;3812;50.006;8.230;2022-07-29T22:04:04;19.40;1.00
7542;DHT22;3812;50.006;8.230;2022-07-29T22:06:33;19.40;1.00
7542;DHT22;3812;50.006;8.230;2022-07-29T22:08:59;19.40;1.00
7542;DHT22;3812;50.006;8.230;2022-07-29T22:11:26;19.40;1.00
7542;DHT22;3812;50.006;8.230;2022-07-29T22:13:53;19.40;1.00
7542;DHT22;3812;50.006;8.230;2022-07-29T22:16:20;19.30;1.00
7542;DHT22;3812;50.006;8.230;2022-07-29T22:18:47;19.20;1.00
7542;DHT22;3812;50.006;8.230;2022-07-29T22:21:14;19.20;1.00
7542;DHT22;3812;50.006;8.230;2022-07-29T22:23:42;19.20;1.00
7542;DHT22;3812;50.006;8.230;2022-07-29T22:26:09;19.10;1.00
7542;DHT22;3812;50.006;8.230;2022-07-29T22:28:36;19.10;1.00
7542;DHT22;3812;50.006;8.230;2022-07-29T22:31:03;19.10;1.00
7542;DHT22;3812;50.006;8.230;2022-07-29T22:33:30;19.20;1.00
7542;DHT22;3812;50.006;8.230;2022-07-29T22:35:56;19.10;1.00
7542;DHT22;3812;50.006;8.230;2022-07-29T22:38:23;19.20;1.00
7542;DHT22;3812;50.006;8.230;2022-07-29T22:40:52;19.20;1.00
7542;DHT22;3812;50.006;8.230;2022-07-29T22:43:18;19.10;1.00
7542;DHT22;3812;50.006;8.230;2022-07-29T22:45:45;19.10;1.00
7542;DHT22;3812;50.006;8.230;2022-07-29T22:48:12;19.10;1.00
7542;DHT22;3812;50.006;8.230;2022-07-29T22:50:39;19.10;1.00
7542;DHT22;3812;50.006;8.230;2022-07-29T22:53:06;19.10;1.00
7542;DHT22;3812;50.006;8.230;2022-07-29T22:55:33;19.10;1.00
7542;DHT22;3812;50.006;8.230;2022-07-29T22:58:01;19.00;1.00
7542;DHT22;3812;50.006;8.230;2022-07-29T23:00:28;18.90;1.00
7542;DHT22;3812;50.006;8.230;2022-07-29T23:02:55;18.90;1.00
7542;DHT22;3812;50.006;8.230;2022-07-29T23:05:22;18.80;1.00
7542;DHT22;3812;50.006;8.230;2022-07-29T23:07:49;18.80;1.00
7542;DHT22;3812;50.006;8.230;2022-07-29T23:10:16;18.70;1.00
7542;DHT22;3812;50.006;8.230;2022-07-29T23:12:42;18.70;1.00
7542;DHT22;3812;50.006;8.230;2022-07-29T23:15:11;18.60;5.00
7542;DHT22;3812;50.006;8.230;2022-07-29T23:17:38;18.40;21.80
7542;DHT22;3812;50.006;8.230;2022-07-29T23:20:06;18.30;35.70
7542;DHT22;3812;50.006;8.230;2022-07-29T23:22:34;18.10;48.90
7542;DHT22;3812;50.006;8.230;2022-07-29T23:25:01;18.00;61.00
